Terminal Aerodrome Forecast
Issued by NWS Pittsburgh, PA

Current Version | Previous Version | Graphics & Text | Print | Product List | Glossary On
Versions: 1 2 3 4 5 6 7 8 9 10 11 12 13 14 15 16 17 18 19 20 21 22 23 24 25 26 27 28 29 30
597
FTUS41 KPBZ 050536
TAFPIT
TAF
KPIT 050536Z 0506/0612 30005KT P6SM -SN BKN035
     FM051300 29008KT P6SM BKN050
     FM060500 VRB03KT P6SM BKN080=

USA.gov is the U.S. government's official web portal to all federal, state and local government web resources and services.